Sloman Herakles — V2FY4 — position and weather

sailwx.info

Track history (hours):
 
Tides and Currents Weather Stations Pressure Air Temp Water Temp Dewpoint Dewpoint Depression Visibility Wind Speed Wind Dir Waves Ship Positions

Sloman Herakles

Last reported at 2015-Sep-02 10:16 UTC. Time now 2015-Sep-04 16:27 UTC.
Position N 42°29' W 080°08'.

Length 145 m; draft 6.5 m.

Type: Tanker. MMSI: 305851000.

Date/timePositionNaut miles runAvg speedWind from/ knotsBaromVisibWave heightAir tempDewpointWater temp
2015-Sep-02 10:16N 42°29' W 080°08'1013.9
2015-Sep-02 09:33N 42°34' W 079°56'1414.1
2015-Sep-02 08:33N 42°41' W 079°39'33 6.6
2015-Sep-02 03:30N 43°07' W 079°12'1 0.7
2015-Sep-02 02:30N 43°08' W 079°12'0 0.1
2015-Sep-02 01:34N 43°08' W 079°12'2 1.7
2015-Sep-02 00:30N 43°10' W 079°12'2 2.0
2015-Sep-01 23:33N 43°12' W 079°12'2 1.6
2015-Sep-01 22:33N 43°13' W 079°13'2 2.2
2015-Sep-01 21:32N 43°15' W 079°15'0 0.1
2015-Sep-01 20:14N 43°15' W 079°15'0 0.0
2015-Sep-01 19:20N 43°15' W 079°15'1 0.3
2015-Sep-01 17:33N 43°15' W 079°15'25410.0
2015-Aug-31 16:09N 45°14' W 074°01'5 9.2
2015-Aug-31 15:33N 45°18' W 073°56'1 1.3
2015-Aug-31 14:33N 45°19' W 073°55'5 4.3
2015-Aug-31 13:30N 45°22' W 073°50'8 8.1
2015-Aug-31 12:33N 45°25' W 073°40'4 4.1
2015-Aug-31 11:33N 45°24' W 073°34'5 0.1
2015-Aug-29 23:11N 45°29' W 073°31'4 5.7
2015-Aug-29 22:30N 45°25' W 073°31'2 2.4
2015-Aug-29 21:33N 45°24' W 073°35'5 5.4
2015-Aug-29 20:33N 45°25' W 073°42'1110.6
2015-Aug-29 19:33N 45°19' W 073°55'1 1.1
2015-Aug-29 18:33N 45°18' W 073°56'6 5.6
2015-Aug-29 17:32N 45°14' W 074°01'116 8.1
2015-Aug-29 03:10N 44°12' W 076°19'13712.9
2015-Aug-28 16:34N 43°16' W 079°12'3 2.8
2015-Aug-28 15:33N 43°13' W 079°13'2 1.5
2015-Aug-28 14:31N 43°12' W 079°12'4 0.7
2015-Aug-28 09:31N 43°08' W 079°12'0 0.3
2015-Aug-28 08:23N 43°08' W 079°12'  
2015-Aug-25 00:33N 43°02' W 079°13'5 5.1
2015-Aug-24 23:33N 43°07' W 079°12'0 0.2
2015-Aug-24 22:33N 43°07' W 079°12'0 0.5
2015-Aug-24 21:33N 43°08' W 079°12'0 0.2
2015-Aug-24 20:34N 43°08' W 079°12'1 1.2
2015-Aug-24 19:34N 43°09' W 079°12'2 2.3
2015-Aug-24 18:34N 43°12' W 079°12'2 1.5
2015-Aug-24 17:33N 43°13' W 079°13'4 3.8
2015-Aug-24 16:33N 43°17' W 079°15'1010.1
2015-Aug-24 15:33N 43°20' W 079°28'11 0.7
2015-Aug-24 00:31N 43°22' W 079°43'0 0.0
2015-Aug-23 23:31N 43°22' W 079°43'0 0.0
2015-Aug-23 22:31N 43°22' W 079°43'0 0.1
2015-Aug-23 18:29N 43°22' W 079°43'5 4.9
2015-Aug-23 17:27N 43°20' W 079°36'1112.5
2015-Aug-23 16:33N 43°17' W 079°22'5 5.3
2015-Aug-23 15:33N 43°14' W 079°15'0 0.1
2015-Aug-23 14:33N 43°14' W 079°15'0 0.0
2015-Aug-23 13:33N 43°14' W 079°15'0 0.0
2015-Aug-23 12:33N 43°14' W 079°15'0 0.0
2015-Aug-23 11:33N 43°14' W 079°15'0 0.0
2015-Aug-23 10:33N 43°14' W 079°15'  
Track history (hours):
 
Tides and Currents Weather Stations Pressure Air Temp Water Temp Dewpoint Dewpoint Depression Visibility Wind Speed Wind Dir Waves Ship Positions

Sloman Herakles

Last reported at 2015-Sep-02 10:16 UTC. Time now 2015-Sep-04 16:27 UTC.
Position N 42°29' W 080°08'.

Length 145 m; draft 6.5 m.

Type: Tanker. MMSI: 305851000.

Date/timePositionNaut miles runAvg speedWind from/ knotsBaromVisibWave heightAir tempDewpointWater temp
2015-Sep-02 10:16N 42°29' W 080°08'1013.9
2015-Sep-02 09:33N 42°34' W 079°56'1414.1
2015-Sep-02 08:33N 42°41' W 079°39'33 6.6
2015-Sep-02 03:30N 43°07' W 079°12'1 0.7
2015-Sep-02 02:30N 43°08' W 079°12'0 0.1
2015-Sep-02 01:34N 43°08' W 079°12'2 1.7
2015-Sep-02 00:30N 43°10' W 079°12'2 2.0
2015-Sep-01 23:33N 43°12' W 079°12'2 1.6
2015-Sep-01 22:33N 43°13' W 079°13'2 2.2
2015-Sep-01 21:32N 43°15' W 079°15'0 0.1
2015-Sep-01 20:14N 43°15' W 079°15'0 0.0
2015-Sep-01 19:20N 43°15' W 079°15'1 0.3
2015-Sep-01 17:33N 43°15' W 079°15'25410.0
2015-Aug-31 16:09N 45°14' W 074°01'5 9.2
2015-Aug-31 15:33N 45°18' W 073°56'1 1.3
2015-Aug-31 14:33N 45°19' W 073°55'5 4.3
2015-Aug-31 13:30N 45°22' W 073°50'8 8.1
2015-Aug-31 12:33N 45°25' W 073°40'4 4.1
2015-Aug-31 11:33N 45°24' W 073°34'5 0.1
2015-Aug-29 23:11N 45°29' W 073°31'4 5.7
2015-Aug-29 22:30N 45°25' W 073°31'2 2.4
2015-Aug-29 21:33N 45°24' W 073°35'5 5.4
2015-Aug-29 20:33N 45°25' W 073°42'1110.6
2015-Aug-29 19:33N 45°19' W 073°55'1 1.1
2015-Aug-29 18:33N 45°18' W 073°56'6 5.6
2015-Aug-29 17:32N 45°14' W 074°01'116 8.1
2015-Aug-29 03:10N 44°12' W 076°19'13712.9
2015-Aug-28 16:34N 43°16' W 079°12'3 2.8
2015-Aug-28 15:33N 43°13' W 079°13'2 1.5
2015-Aug-28 14:31N 43°12' W 079°12'4 0.7
2015-Aug-28 09:31N 43°08' W 079°12'0 0.3
2015-Aug-28 08:23N 43°08' W 079°12'  
2015-Aug-25 00:33N 43°02' W 079°13'5 5.1
2015-Aug-24 23:33N 43°07' W 079°12'0 0.2
2015-Aug-24 22:33N 43°07' W 079°12'0 0.5
2015-Aug-24 21:33N 43°08' W 079°12'0 0.2
2015-Aug-24 20:34N 43°08' W 079°12'1 1.2
2015-Aug-24 19:34N 43°09' W 079°12'2 2.3
2015-Aug-24 18:34N 43°12' W 079°12'2 1.5
2015-Aug-24 17:33N 43°13' W 079°13'4 3.8
2015-Aug-24 16:33N 43°17' W 079°15'1010.1
2015-Aug-24 15:33N 43°20' W 079°28'11 0.7
2015-Aug-24 00:31N 43°22' W 079°43'0 0.0
2015-Aug-23 23:31N 43°22' W 079°43'0 0.0
2015-Aug-23 22:31N 43°22' W 079°43'0 0.1
2015-Aug-23 18:29N 43°22' W 079°43'5 4.9
2015-Aug-23 17:27N 43°20' W 079°36'1112.5
2015-Aug-23 16:33N 43°17' W 079°22'5 5.3
2015-Aug-23 15:33N 43°14' W 079°15'0 0.1
2015-Aug-23 14:33N 43°14' W 079°15'0 0.0
2015-Aug-23 13:33N 43°14' W 079°15'0 0.0
2015-Aug-23 12:33N 43°14' W 079°15'0 0.0
2015-Aug-23 11:33N 43°14' W 079°15'0 0.0
2015-Aug-23 10:33N 43°14' W 079°15'  

Dump ship's entire track history